Gluckstadt, Mississippi
Current Conditions -  °F | °C
As of 7:53 PM on Thursday 18 Dec 2014 (Local Time) from KHKS Reporting Station
Clear Clear  
Wind Chill: 48°   Ceiling: Unl
Heat Index: 48°   Visibility: 9mi
Dew Point: 44°   Wind: 3mph
Humidity: 86%   Direction: 60°ENE
Pressure: 30.18"   Gusts: NA
Location:  32.5032°N, 90.1424°W
Report Text: KHKS 190153Z 06003KT 9SM CLR 09/07 A3018 RMK AO2 SLP214 T00890067
Loading
Personal Weather Stations






























Interactive Weather Map New forecast layout! Learn more

10-Day Weather Forecast

Advertisements
Track Severe Weather on mobile